createdAt,value
2022-08-17T00:00:55.056Z,96513.91
2022-08-17T00:03:27.230Z,96505.81
2022-08-17T00:06:04.029Z,96516.31
2022-08-17T00:08:32.989Z,96513.72
2022-08-17T00:10:59.716Z,96503.22
2022-08-17T00:13:31.789Z,96511.69
2022-08-17T00:16:05.410Z,96515.31
2022-08-17T00:18:58.370Z,96518.97
2022-08-17T00:21:24.006Z,96515.19
2022-08-17T00:23:52.296Z,96504.16
2022-08-17T00:26:43.644Z,96505.81
2022-08-17T00:29:05.994Z,96509.19
2022-08-17T00:31:32.924Z,96494.44
2022-08-17T00:33:59.591Z,96503.03
2022-08-17T00:36:26.519Z,96507.53
2022-08-17T00:38:53.133Z,96489.16
2022-08-17T00:41:23.404Z,96465.63
2022-08-17T00:43:57.391Z,96498.41
2022-08-17T00:46:27.845Z,96498.19
2022-08-17T00:48:54.687Z,96517.53
2022-08-17T00:51:53.330Z,96510.84
2022-08-17T00:54:50.702Z,96501.81
2022-08-17T00:57:20.097Z,96484.28
2022-08-17T00:59:55.968Z,96515.34
2022-08-17T01:02:30.834Z,96487.69
2022-08-17T01:05:01.224Z,96502.34
2022-08-17T01:07:27.827Z,96496.53
2022-08-17T01:09:54.486Z,96533.06
2022-08-17T01:12:21.462Z,96484.75
2022-08-17T01:14:48.075Z,96475.56
2022-08-17T01:17:14.723Z,96483.59
2022-08-17T01:19:42.087Z,96484.75
2022-08-17T01:22:20.548Z,96510.69
2022-08-17T01:24:50.398Z,96519.75
2022-08-17T01:27:18.443Z,96499.97
2022-08-17T01:29:50.388Z,96479.47
2022-08-17T01:32:17.001Z,96515.19
2022-08-17T01:34:50.291Z,96485.28
2022-08-17T01:37:17.652Z,96501.22
2022-08-17T01:39:56.141Z,96484.97
2022-08-17T01:42:26.760Z,96499.78
2022-08-17T01:44:55.886Z,96485.81
2022-08-17T01:47:23.344Z,96524.72
2022-08-17T01:49:50.688Z,96512.25
2022-08-17T01:52:17.531Z,96512.09
2022-08-17T01:54:45.827Z,96497.59
2022-08-17T01:57:12.574Z,96493.91
2022-08-17T01:59:39.296Z,96501.75
2022-08-17T02:02:06.005Z,96504.50
2022-08-17T02:04:32.749Z,96497.44
2022-08-17T02:06:59.392Z,96505.16
2022-08-17T02:09:29.983Z,96507.22
2022-08-17T02:11:57.659Z,96483.94
2022-08-17T02:14:25.313Z,96484.09
2022-08-17T02:16:52.086Z,96483.09
2022-08-17T02:19:18.901Z,96497.06
2022-08-17T02:21:46.978Z,96478.59
2022-08-17T02:25:01.044Z,96497.81
2022-08-17T02:27:11.627Z,96478.25
2022-08-17T02:29:38.257Z,96481.97
2022-08-17T02:32:05.206Z,96473.66
2022-08-17T02:34:31.855Z,96481.03
2022-08-17T02:36:58.463Z,96473.38
2022-08-17T02:39:25.197Z,96470.09
2022-08-17T02:42:00.412Z,96462.22
2022-08-17T02:44:35.349Z,96485.25
2022-08-17T02:47:07.892Z,96468.28
2022-08-17T02:49:34.481Z,96470.16
2022-08-17T02:52:03.008Z,96459.50
2022-08-17T02:54:40.395Z,96459.72
2022-08-17T02:57:08.664Z,96443.78
2022-08-17T02:59:35.354Z,96434.06
2022-08-17T03:02:03.959Z,96448.38
2022-08-17T03:04:31.064Z,96465.47
2022-08-17T03:07:01.566Z,96465.00
2022-08-17T03:09:28.201Z,96460.53
2022-08-17T03:11:56.010Z,96451.78
2022-08-17T03:14:26.148Z,96448.63
2022-08-17T03:16:53.123Z,96467.72
2022-08-17T03:19:19.737Z,96454.38
2022-08-17T03:21:46.529Z,96444.16
2022-08-17T03:24:21.744Z,96431.25
2022-08-17T03:26:55.382Z,96473.00
2022-08-17T03:29:21.970Z,96468.19
2022-08-17T03:31:49.089Z,96473.28
2022-08-17T03:34:16.026Z,96470.94
2022-08-17T03:36:42.844Z,96449.22
2022-08-17T03:39:09.569Z,96470.47
2022-08-17T03:41:36.259Z,96472.66
2022-08-17T03:44:03.191Z,96451.38
2022-08-17T03:46:35.175Z,96447.72
2022-08-17T03:49:06.479Z,96452.47
2022-08-17T03:51:33.527Z,96434.34
2022-08-17T03:54:00.280Z,96442.13
2022-08-17T03:56:26.904Z,96452.13
2022-08-17T03:58:53.484Z,96439.13
2022-08-17T04:01:20.147Z,96455.09
2022-08-17T04:03:46.817Z,96448.78
2022-08-17T04:06:13.442Z,96428.94
2022-08-17T04:08:40.055Z,96458.50
2022-08-17T04:11:06.731Z,96454.81
2022-08-17T04:13:33.331Z,96459.56
2022-08-17T04:16:00.046Z,96479.00
2022-08-17T04:18:26.762Z,96478.75
2022-08-17T04:20:53.339Z,96470.97
2022-08-17T04:23:20.078Z,96476.91
2022-08-17T04:25:50.276Z,96475.59
2022-08-17T04:28:18.042Z,96470.31
2022-08-17T04:30:45.113Z,96453.91
2022-08-17T04:33:16.609Z,96457.44
2022-08-17T04:35:48.686Z,96475.69
2022-08-17T04:38:17.699Z,96442.88
2022-08-17T04:40:44.385Z,96486.38
2022-08-17T04:43:15.777Z,96472.84
2022-08-17T04:45:57.164Z,96481.78
2022-08-17T04:48:27.865Z,96496.75
2022-08-17T04:51:02.885Z,96496.44
2022-08-17T04:53:29.533Z,96489.41
2022-08-17T04:55:56.209Z,96494.34
2022-08-17T04:58:22.895Z,96496.88
2022-08-17T05:00:49.584Z,96480.47
2022-08-17T05:03:16.271Z,96493.16
2022-08-17T05:05:42.926Z,96487.59
2022-08-17T05:08:09.757Z,96493.50
2022-08-17T05:10:37.316Z,96521.78
2022-08-17T05:13:14.348Z,96517.13
2022-08-17T05:15:44.705Z,96504.72
2022-08-17T05:18:11.887Z,96510.19
2022-08-17T05:20:39.256Z,96487.72
2022-08-17T05:23:07.571Z,96509.50
2022-08-17T05:25:36.338Z,96510.19
2022-08-17T05:28:04.496Z,96530.16
2022-08-17T05:30:33.191Z,96516.88
2022-08-17T05:33:08.041Z,96488.06
2022-08-17T05:35:35.582Z,96497.53
2022-08-17T05:38:02.224Z,96518.09
2022-08-17T05:40:32.859Z,96480.66
2022-08-17T05:43:10.681Z,96490.56
2022-08-17T05:45:54.698Z,96491.59
2022-08-17T05:48:22.699Z,96483.91
2022-08-17T05:51:37.717Z,96493.38
2022-08-17T05:54:26.206Z,96491.03
2022-08-17T05:57:12.368Z,96491.13
2022-08-17T06:00:20.340Z,96499.03
2022-08-17T06:02:50.534Z,96481.97
2022-08-17T06:05:17.186Z,96493.22
2022-08-17T06:07:50.253Z,96513.50
2022-08-17T06:10:30.231Z,96506.53
2022-08-17T06:13:10.466Z,96504.84
2022-08-17T06:16:02.832Z,96508.25
2022-08-17T06:18:33.768Z,96523.03
2022-08-17T06:21:02.046Z,96499.38
2022-08-17T06:23:43.079Z,96501.00
2022-08-17T06:26:34.535Z,96512.19
2022-08-17T06:29:32.819Z,96504.41
2022-08-17T06:31:59.429Z,96497.16
2022-08-17T06:34:26.089Z,96501.81
2022-08-17T06:37:03.725Z,96466.81
2022-08-17T06:39:50.698Z,96484.22
2022-08-17T06:43:05.283Z,96496.88
2022-08-17T06:45:41.729Z,96502.72
2022-08-17T06:48:15.600Z,96497.19
2022-08-17T06:50:44.609Z,96510.44
2022-08-17T06:53:24.617Z,96506.81
2022-08-17T06:56:05.268Z,96504.47
2022-08-17T06:58:32.407Z,96512.47
2022-08-17T07:01:07.749Z,96519.63
2022-08-17T07:06:50.980Z,96515.28
2022-08-17T07:09:34.144Z,96530.44
2022-08-17T07:12:04.451Z,96539.41
2022-08-17T07:14:35.334Z,96530.97
2022-08-17T07:17:22.439Z,96542.91
2022-08-17T07:20:14.968Z,96538.78
2022-08-17T07:23:00.185Z,96520.22
2022-08-17T07:25:27.322Z,96536.97
2022-08-17T07:27:55.187Z,96534.56
2022-08-17T07:30:25.694Z,96525.19
2022-08-17T07:33:07.117Z,96539.28
2022-08-17T07:35:41.312Z,96530.75
2022-08-17T07:38:25.349Z,96555.34
2022-08-17T07:40:56.034Z,96545.72
2022-08-17T07:43:26.077Z,96534.28
2022-08-17T07:46:01.948Z,96560.00
2022-08-17T07:48:28.681Z,96554.63
2022-08-17T07:50:55.479Z,96543.59
2022-08-17T07:53:24.281Z,96531.00
2022-08-17T07:55:51.794Z,96545.47
2022-08-17T07:58:20.075Z,96542.59
2022-08-17T08:00:46.700Z,96542.31
2022-08-17T08:03:23.693Z,96570.34
2022-08-17T08:05:57.624Z,96557.53
2022-08-17T08:08:40.459Z,96557.72
2022-08-17T08:11:13.887Z,96562.47
2022-08-17T08:13:41.731Z,96548.91
2022-08-17T08:16:21.479Z,96557.47
2022-08-17T08:18:55.640Z,96558.41
2022-08-17T08:21:44.787Z,96553.44
2022-08-17T08:24:18.702Z,96552.53
2022-08-17T08:26:50.712Z,96557.22
2022-08-17T08:29:20.387Z,96544.72
2022-08-17T08:31:46.872Z,96567.72
2022-08-17T08:35:00.580Z,96570.56
2022-08-17T08:37:51.015Z,96554.94
2022-08-17T08:40:42.549Z,96531.72
2022-08-17T08:43:32.131Z,96540.22
2022-08-17T08:46:07.948Z,96557.13
2022-08-17T08:49:06.555Z,96562.59
2022-08-17T08:51:55.825Z,96543.34
2022-08-17T08:54:31.446Z,96549.25
2022-08-17T08:57:24.302Z,96529.94
2022-08-17T09:00:05.354Z,96540.75
2022-08-17T09:03:01.220Z,96538.25
2022-08-17T09:05:42.818Z,96558.41
2022-08-17T09:08:19.846Z,96541.22
2022-08-17T09:10:52.547Z,96524.88
2022-08-17T09:13:27.019Z,96535.84
2022-08-17T09:15:57.755Z,96564.06
2022-08-17T09:18:59.068Z,96536.13
2022-08-17T09:21:23.247Z,96538.69
2022-08-17T09:24:21.705Z,96531.50
2022-08-17T09:27:13.785Z,96534.81
2022-08-17T09:29:44.634Z,96563.06
2022-08-17T09:32:22.349Z,96538.84
2022-08-17T09:34:53.657Z,96525.44
2022-08-17T09:37:37.650Z,96526.94
2022-08-17T09:40:23.929Z,96537.59
2022-08-17T09:43:13.198Z,96525.38
2022-08-17T09:45:47.385Z,96555.88
2022-08-17T09:48:26.942Z,96534.06
2022-08-17T09:51:06.462Z,96507.19
2022-08-17T09:53:36.906Z,96537.31
2022-08-17T09:56:09.316Z,96491.97
2022-08-17T09:59:03.968Z,96518.22
2022-08-17T10:01:39.419Z,96493.78
2022-08-17T10:04:29.365Z,96506.69
2022-08-17T10:07:07.960Z,96510.34
2022-08-17T10:09:46.865Z,96510.66
2022-08-17T10:12:20.627Z,96528.81
2022-08-17T10:14:58.117Z,96527.81
2022-08-17T10:18:04.145Z,96510.66
2022-08-17T10:20:59.627Z,96516.38
2022-08-17T10:23:27.820Z,96485.88
2022-08-17T10:26:09.565Z,96481.97
2022-08-17T10:28:53.945Z,96498.53
2022-08-17T10:31:35.498Z,96507.09
2022-08-17T10:34:41.199Z,96501.78
2022-08-17T10:37:28.751Z,96516.59
2022-08-17T10:40:11.421Z,96520.78
2022-08-17T10:43:02.404Z,96527.06
2022-08-17T10:46:10.308Z,96524.19
2022-08-17T10:48:38.567Z,96504.75
2022-08-17T10:51:08.042Z,96512.09
2022-08-17T10:53:34.556Z,96515.53
2022-08-17T10:56:13.258Z,96496.03
2022-08-17T10:58:55.993Z,96523.38
2022-08-17T11:01:37.712Z,96478.75
2022-08-17T11:04:17.416Z,96479.34
2022-08-17T11:06:57.145Z,96492.66
2022-08-17T11:10:08.297Z,96487.69
2022-08-17T11:12:42.387Z,96486.31
2022-08-17T11:15:17.948Z,96459.25
2022-08-17T11:18:07.091Z,96497.00
2022-08-17T11:20:46.183Z,96442.38
2022-08-17T11:23:27.878Z,96465.34
2022-08-17T11:25:58.771Z,96464.16
2022-08-17T11:28:30.919Z,96471.78
2022-08-17T11:30:59.268Z,96476.69
2022-08-17T11:33:29.876Z,96453.69
2022-08-17T11:36:38.004Z,96452.19
2022-08-17T11:39:17.783Z,96472.78
2022-08-17T11:41:55.710Z,96476.81
2022-08-17T11:44:37.818Z,96477.19
2022-08-17T11:47:23.038Z,96481.78
2022-08-17T11:50:00.744Z,96516.25
2022-08-17T11:52:38.341Z,96483.78
2022-08-17T11:55:31.761Z,96496.72
2022-08-17T11:58:05.340Z,96527.69
2022-08-17T12:00:47.302Z,96476.94
2022-08-17T12:03:22.699Z,96474.97
2022-08-17T12:05:49.501Z,96483.56
2022-08-17T12:08:19.534Z,96507.13
2022-08-17T12:11:07.671Z,96479.81
2022-08-17T12:13:45.829Z,96454.53
2022-08-17T12:16:16.841Z,96462.53
2022-08-17T12:18:57.475Z,96478.69
2022-08-17T12:21:40.526Z,96469.19
2022-08-17T12:24:28.828Z,96470.56
2022-08-17T12:27:00.901Z,96462.09
2022-08-17T12:29:38.410Z,96479.22
2022-08-17T12:32:06.656Z,96491.47
2022-08-17T12:34:36.005Z,96461.03
2022-08-17T12:37:06.827Z,96471.66
2022-08-17T12:39:33.939Z,96471.25
2022-08-17T12:42:02.529Z,96474.81
2022-08-17T12:44:35.486Z,96466.41
2022-08-17T12:47:23.244Z,96459.97
2022-08-17T12:49:54.422Z,96485.16
2022-08-17T12:52:26.073Z,96474.34
2022-08-17T12:55:19.254Z,96456.41
2022-08-17T12:57:50.152Z,96445.47
2022-08-17T13:00:25.874Z,96457.19
2022-08-17T13:02:54.629Z,96452.94
2022-08-17T13:05:25.469Z,96452.38
2022-08-17T13:07:52.638Z,96470.09
2022-08-17T13:10:30.074Z,96460.91
2022-08-17T13:12:59.098Z,96480.69
2022-08-17T13:15:29.666Z,96455.28
2022-08-17T13:18:09.976Z,96446.91
2022-08-17T13:20:37.132Z,96465.66
2022-08-17T13:23:09.973Z,96447.59
2022-08-17T13:25:38.834Z,96433.66
2022-08-17T13:28:05.536Z,96432.31
2022-08-17T13:30:32.483Z,96433.09
2022-08-17T13:32:59.826Z,96434.31
2022-08-17T13:35:39.755Z,96453.94
2022-08-17T13:38:12.480Z,96429.22
2022-08-17T13:40:42.522Z,96435.44
2022-08-17T13:43:09.413Z,96432.22
2022-08-17T13:45:50.825Z,96435.78
2022-08-17T13:48:28.820Z,96420.28
2022-08-17T13:50:55.422Z,96409.47
2022-08-17T13:53:31.272Z,96424.28
2022-08-17T13:56:33.447Z,96446.47
2022-08-17T13:59:36.361Z,96418.50
2022-08-17T14:02:11.554Z,96436.09
2022-08-17T14:04:39.613Z,96425.31
2022-08-17T14:07:09.230Z,96421.63
2022-08-17T14:09:57.000Z,96420.72
2022-08-17T14:12:25.300Z,96410.91
2022-08-17T14:14:52.268Z,96413.91
2022-08-17T14:17:18.966Z,96420.03
2022-08-17T14:19:45.581Z,96421.28
2022-08-17T14:22:18.262Z,96386.28
2022-08-17T14:24:45.187Z,96396.53
2022-08-17T14:27:11.891Z,96403.22
2022-08-17T14:29:38.562Z,96417.03
2022-08-17T14:32:21.803Z,96419.06
2022-08-17T14:34:49.415Z,96421.94
2022-08-17T14:37:17.084Z,96421.63
2022-08-17T14:39:43.833Z,96414.81
2022-08-17T14:42:10.560Z,96384.81
2022-08-17T14:44:38.744Z,96391.16
2022-08-17T14:47:26.892Z,96399.44
2022-08-17T14:49:53.527Z,96400.34
2022-08-17T14:52:20.702Z,96389.06
2022-08-17T14:54:48.632Z,96399.78
2022-08-17T14:57:25.933Z,96398.78
2022-08-17T15:00:00.656Z,96379.59
2022-08-17T15:02:30.059Z,96383.59
2022-08-17T15:05:04.485Z,96384.19
2022-08-17T15:07:33.093Z,96369.13
2022-08-17T15:10:00.637Z,96367.25
2022-08-17T15:12:32.239Z,96379.28
2022-08-17T15:14:59.742Z,96347.63
2022-08-17T15:17:26.407Z,96355.75
2022-08-17T15:20:19.237Z,96353.19
2022-08-17T15:22:46.154Z,96373.50
2022-08-17T15:25:12.959Z,96327.78
2022-08-17T15:27:39.621Z,96338.94
2022-08-17T15:30:07.199Z,96341.06
2022-08-17T15:32:35.731Z,96359.47
2022-08-17T15:35:02.771Z,96336.59
2022-08-17T15:37:29.492Z,96346.84
2022-08-17T15:39:56.278Z,96353.88
2022-08-17T15:42:23.040Z,96364.00
2022-08-17T15:44:49.673Z,96330.88
2022-08-17T15:47:16.428Z,96344.72
2022-08-17T15:49:43.702Z,96380.13
2022-08-17T15:52:21.162Z,96369.72
2022-08-17T15:54:55.474Z,96376.06
2022-08-17T15:57:22.189Z,96335.72
2022-08-17T15:59:54.006Z,96372.78
2022-08-17T16:03:45.965Z,96352.28
2022-08-17T16:05:17.528Z,96342.75
2022-08-17T16:07:46.650Z,96370.13
2022-08-17T16:10:18.640Z,96372.66
2022-08-17T16:12:46.221Z,96380.78
2022-08-17T16:15:13.145Z,96368.72
2022-08-17T16:17:40.809Z,96394.28
2022-08-17T16:20:20.472Z,96390.09
2022-08-17T16:22:47.742Z,96374.63
2022-08-17T16:25:17.086Z,96361.59
2022-08-17T16:27:43.819Z,96355.50
2022-08-17T16:30:16.947Z,96373.22
2022-08-17T16:32:44.185Z,96363.63
2022-08-17T16:35:11.472Z,96360.63
2022-08-17T16:37:38.611Z,96393.19
2022-08-17T16:40:06.461Z,96362.31
2022-08-17T16:42:33.976Z,96369.78
2022-08-17T16:45:21.693Z,96369.25
2022-08-17T16:47:48.326Z,96364.91
2022-08-17T16:50:15.700Z,96372.38
2022-08-17T16:52:42.384Z,96385.00
2022-08-17T16:55:10.474Z,96372.81
2022-08-17T16:57:47.387Z,96360.44
2022-08-17T17:00:18.472Z,96363.81
2022-08-17T17:02:47.586Z,96365.69
2022-08-17T17:05:38.651Z,96376.94
2022-08-17T17:08:23.973Z,96368.72
2022-08-17T17:10:52.590Z,96379.72
2022-08-17T17:13:52.358Z,96373.81
2022-08-17T17:16:29.674Z,96377.94
2022-08-17T17:19:11.376Z,96364.28
2022-08-17T17:21:53.162Z,96355.84
2022-08-17T17:24:32.753Z,96366.84
2022-08-17T17:27:15.218Z,96382.03
2022-08-17T17:30:20.378Z,96360.94
2022-08-17T17:33:14.986Z,96345.34
2022-08-17T17:35:56.768Z,96348.75
2022-08-17T17:38:29.180Z,96342.53
2022-08-17T17:41:02.531Z,96366.31
2022-08-17T17:43:40.147Z,96360.94
2022-08-17T17:46:28.429Z,96376.22
2022-08-17T17:48:56.627Z,96357.50
2022-08-17T17:52:05.261Z,96353.59
2022-08-17T17:55:01.354Z,96355.66
2022-08-17T17:57:33.810Z,96339.13
2022-08-17T18:00:15.123Z,96349.13
2022-08-17T18:02:51.942Z,96353.34
2022-08-17T18:05:31.471Z,96357.84
2022-08-17T18:08:12.263Z,96346.16
2022-08-17T18:11:04.535Z,96318.22
2022-08-17T18:14:02.362Z,96353.78
2022-08-17T18:16:29.184Z,96336.91
2022-08-17T18:18:58.524Z,96365.66
2022-08-17T18:21:37.939Z,96345.22
2022-08-17T18:24:06.276Z,96351.94
2022-08-17T18:26:33.034Z,96335.41
2022-08-17T18:29:02.700Z,96337.81
2022-08-17T18:31:29.382Z,96343.31
2022-08-17T18:34:45.865Z,96339.84
2022-08-17T18:37:11.409Z,96324.91
2022-08-17T18:39:43.061Z,96331.59
2022-08-17T18:42:24.336Z,96343.41
2022-08-17T18:44:54.877Z,96358.34
2022-08-17T18:47:27.208Z,96331.22
2022-08-17T18:50:13.496Z,96327.66
2022-08-17T18:52:40.178Z,96320.97
2022-08-17T18:55:23.873Z,96338.59
2022-08-17T18:57:58.285Z,96324.81
2022-08-17T19:00:30.554Z,96324.78
2022-08-17T19:03:00.995Z,96322.34
2022-08-17T19:05:32.828Z,96327.03
2022-08-17T19:08:18.207Z,96335.56
2022-08-17T19:10:46.722Z,96319.38
2022-08-17T19:13:29.023Z,96346.09
2022-08-17T19:16:14.718Z,96309.56
2022-08-17T19:18:51.006Z,96347.19
2022-08-17T19:21:33.537Z,96335.31
2022-08-17T19:24:16.671Z,96340.31
2022-08-17T19:26:50.585Z,96342.22
2022-08-17T19:29:50.072Z,96311.16
2022-08-17T19:32:18.181Z,96329.25
2022-08-17T19:34:45.129Z,96331.13
2022-08-17T19:37:28.221Z,96327.44
2022-08-17T19:40:29.249Z,96324.25
2022-08-17T19:43:14.551Z,96326.78
2022-08-17T19:46:03.843Z,96323.91
2022-08-17T19:48:56.973Z,96317.22
2022-08-17T19:51:31.311Z,96312.06
2022-08-17T19:54:25.811Z,96319.13
2022-08-17T19:57:12.276Z,96337.06
2022-08-17T19:59:44.994Z,96359.72
2022-08-17T20:02:26.423Z,96335.66
2022-08-17T20:04:56.228Z,96353.66
2022-08-17T20:07:26.258Z,96337.88
2022-08-17T20:10:06.025Z,96347.41
2022-08-17T20:12:37.555Z,96357.66
2022-08-17T20:15:17.999Z,96360.56
2022-08-17T20:17:46.121Z,96372.13
2022-08-17T20:20:19.655Z,96350.00
2022-08-17T20:22:52.757Z,96380.53
2022-08-17T20:25:31.425Z,96364.94
2022-08-17T20:28:18.716Z,96367.81
2022-08-17T20:30:45.576Z,96359.47
2022-08-17T20:33:33.513Z,96367.56
2022-08-17T20:35:59.949Z,96355.69
2022-08-17T20:38:44.742Z,96358.25
2022-08-17T20:41:19.121Z,96343.25
2022-08-17T20:43:50.639Z,96374.66
2022-08-17T20:46:32.725Z,96350.88
2022-08-17T20:49:08.252Z,96353.19
2022-08-17T20:51:39.487Z,96361.72
2022-08-17T20:55:04.807Z,96387.00
2022-08-17T20:57:31.277Z,96364.63
2022-08-17T21:00:20.738Z,96371.63
2022-08-17T21:02:49.132Z,96361.94
2022-08-17T21:05:34.344Z,96367.53
2022-08-17T21:08:14.768Z,96366.88
2022-08-17T21:10:41.776Z,96376.56
2022-08-17T21:13:08.549Z,96360.78
2022-08-17T21:16:08.987Z,96366.50
2022-08-17T21:18:38.569Z,96374.09
2022-08-17T21:21:17.899Z,96376.38
2022-08-17T21:24:13.709Z,96369.47
2022-08-17T21:26:58.871Z,96365.16
2022-08-17T21:29:32.286Z,96346.44
2022-08-17T21:32:03.321Z,96357.06
2022-08-17T21:34:34.714Z,96338.19
2022-08-17T21:37:20.332Z,96327.06
2022-08-17T21:39:49.495Z,96350.41
2022-08-17T21:42:16.360Z,96356.09
2022-08-17T21:44:48.177Z,96344.31
2022-08-17T21:47:22.077Z,96340.53
2022-08-17T21:49:48.846Z,96330.63
2022-08-17T21:52:19.044Z,96339.69
2022-08-17T21:54:50.242Z,96341.97
2022-08-17T21:57:19.120Z,96346.50
2022-08-17T21:59:45.787Z,96332.22
2022-08-17T22:02:20.210Z,96352.97
2022-08-17T22:05:08.660Z,96339.88
2022-08-17T22:08:02.403Z,96340.03
2022-08-17T22:10:42.216Z,96360.94
2022-08-17T22:13:21.709Z,96362.25
2022-08-17T22:16:15.606Z,96349.06
2022-08-17T22:18:55.735Z,96326.34
2022-08-17T22:21:24.594Z,96344.88
2022-08-17T22:24:03.797Z,96330.38
2022-08-17T22:27:06.061Z,96350.16
2022-08-17T22:29:42.912Z,96329.97
2022-08-17T22:32:09.617Z,96334.41
2022-08-17T22:34:36.293Z,96328.59
2022-08-17T22:37:27.272Z,96340.72
2022-08-17T22:39:58.522Z,96342.47
2022-08-17T22:42:25.241Z,96351.13
2022-08-17T22:44:51.877Z,96336.88
2022-08-17T22:47:18.409Z,96339.00
2022-08-17T22:49:55.879Z,96333.06
2022-08-17T22:52:29.946Z,96338.38
2022-08-17T22:55:12.383Z,96366.63
2022-08-17T22:57:39.081Z,96347.25
2022-08-17T23:00:06.243Z,96338.44
2022-08-17T23:02:34.397Z,96316.13
2022-08-17T23:05:10.081Z,96304.00
2022-08-17T23:07:36.762Z,96343.19
2022-08-17T23:10:04.026Z,96332.63
2022-08-17T23:12:30.635Z,96356.03
2022-08-17T23:14:58.569Z,96349.56
2022-08-17T23:17:25.269Z,96344.38
2022-08-17T23:19:51.933Z,96355.16
2022-08-17T23:22:18.526Z,96340.03
2022-08-17T23:24:46.238Z,96345.59
2022-08-17T23:27:12.882Z,96373.81
2022-08-17T23:29:39.596Z,96385.78
2022-08-17T23:32:06.409Z,96365.78
2022-08-17T23:34:33.144Z,96360.31
2022-08-17T23:36:59.764Z,96377.38
2022-08-17T23:39:28.240Z,96375.69
2022-08-17T23:41:56.474Z,96444.28
2022-08-17T23:44:23.221Z,96431.06
2022-08-17T23:46:51.045Z,96429.34
2022-08-17T23:49:17.728Z,96483.84
2022-08-17T23:51:44.438Z,96556.59
2022-08-17T23:54:23.288Z,96532.53
2022-08-17T23:56:49.925Z,96511.75
2022-08-17T23:59:17.883Z,96544.41
